Accueil
METAR-TAF:

METAR-TAF

Aéroports :

Marion County Regional Airport

Flippin, Arkansas, États-Unis

latitude: 36-18N, longitude: 092-28W, altitude: 350 m

Observation

Le bulletin a été fait il y a 54 minutes, à 15:56 UTC
Vent 10 kt de nord/nord-ouest
Température 7°C
Humidité 45%
Pression 1026 hPa
Visibilité: 16.1 km
Ciel couvert à une hauteur de 5500 ft

METAR: KFLP 141556Z AUTO 34010KT 10SM OVC055 07/M04 A3031 RMK AO2 SLP266 T00671044

Heure: 10:50 (16:50 UTC)


TAF: absent

Observations et prévisions météorologiques de plus de 4000 aéroports (messages METAR et TAF).

Les stations disponibles sont représentées par des disques jaunes et rouges sur la carte.

Passer la souris dessus pour voir le nom de la station.

Cliquer dessus pour voir les observations et prévisions météorologiques.

Pour changer de carte: cliquez sur les boutons verts avec une croix noire pour zoomer, sur le bouton vert avec un tiret pour effectuer un zoom arrière, ou sur les flèches vertes pour les cartes adjacentes.


METAR-TAF: